Time;durP1;ratioP1;P1;durP2;ratioP2;P2;SDS_P1;SDS_P2;PMS_P1;PMS_P2;Temp;Humidity;BMP_temperature;BMP_pressure;BME280_temperature;BME280_humidity;BME280_pressure;Samples;Min_cycle;Max_cycle;Signal;HPM_P1;HPM_P2
2023/12/04 07:01:29;;;;;;;2.43;0.67;;;4.30;99.90;6.80;100473.00;;;;6221647;22;1462634;-66
2023/12/04 07:03:55;;;;;;;1.43;0.77;;;4.20;99.90;6.90;100471.00;;;;6251056;22;20168;-66
2023/12/04 07:06:21;;;;;;;0.43;0.43;;;4.20;99.90;7.40;100413.00;;;;6251558;22;20145;-66
2023/12/04 07:08:58;;;;;;;4.33;0.33;;;4.30;99.90;7.50;100472.00;;;;6251465;22;20149;-66
2023/12/04 07:11:35;;;;;;;0.37;0.37;;;4.40;99.90;7.60;100462.00;;;;6252056;22;20191;-65
2023/12/04 07:14:04;;;;;;;1.03;1.03;;;4.50;99.90;7.40;100450.00;;;;6251073;22;20148;-65
2023/12/04 07:16:44;;;;;;;0.30;0.30;;;4.60;99.90;7.50;100416.00;;;;6251226;22;20610;-65
2023/12/04 07:19:22;;;;;;;0.30;0.30;;;4.50;99.90;7.50;100450.00;;;;6251406;22;20144;-66
2023/12/04 07:21:49;;;;;;;1.75;0.90;;;4.60;99.90;7.70;100424.00;;;;6250289;22;20382;-65
2023/12/04 07:24:23;;;;;;;0.77;0.73;;;4.60;99.90;7.50;100442.00;;;;6250676;22;20510;-65
2023/12/04 07:26:54;;;;;;;0.10;0.10;;;4.70;99.90;7.20;100443.00;;;;6250565;22;20236;-66
2023/12/04 07:29:29;;;;;;;4.47;1.67;;;4.70;99.90;7.50;100394.00;;;;6250710;22;20206;-65
2023/12/04 07:32:03;;;;;;;1.97;1.47;;;4.70;99.90;7.20;100442.00;;;;6250333;22;20181;-65
2023/12/04 07:34:35;;;;;;;2.40;1.73;;;4.80;99.90;7.30;100410.00;;;;6225813;22;20163;-65
2023/12/04 07:37:11;;;;;;;1.77;1.60;;;4.70;99.90;7.50;100394.00;;;;6251180;22;20143;-65
2023/12/04 07:39:49;;;;;;;0.60;0.50;;;4.80;99.90;7.70;100422.00;;;;6250816;22;20587;-65
2023/12/04 07:42:21;;;;;;;0.10;0.10;;;4.80;99.90;7.90;100416.00;;;;6250894;22;20208;-65
2023/12/04 07:44:55;;;;;;;1.83;1.70;;;5.00;99.90;7.60;100421.00;;;;6251219;22;20168;-65
2023/12/04 07:47:32;;;;;;;0.60;0.60;;;5.00;99.90;7.70;100419.00;;;;6250935;22;20165;-65
2023/12/04 07:50:07;;;;;;;0.93;0.73;;;5.00;99.90;7.70;100419.00;;;;6225282;22;20162;-65
2023/12/04 07:52:41;;;;;;;0.83;0.50;;;4.90;99.90;7.80;100410.00;;;;6249597;22;20174;-65
2023/12/04 07:55:15;;;;;;;2.00;1.20;;;5.00;99.90;7.70;100419.00;;;;6251083;22;20578;-65
2023/12/04 07:57:52;;;;;;;0.93;0.57;;;5.00;99.90;7.80;100375.00;;;;6277899;22;20154;-65
2023/12/04 08:00:23;;;;;;;1.07;0.97;;;4.90;99.90;8.00;100405.00;;;;6218983;23;20166;-66
2023/12/04 08:02:55;;;;;;;0.67;0.67;;;5.00;99.90;7.50;100410.00;;;;6220389;23;20160;-66
2023/12/04 08:05:27;;;;;;;0.40;0.40;;;4.90;99.90;7.90;100361.00;;;;6195349;23;20158;-66
2023/12/04 08:08:01;;;;;;;1.60;1.50;;;4.90;99.90;7.90;100400.00;;;;6220551;23;20581;-66
2023/12/04 08:10:33;;;;;;;1.87;1.17;;;4.90;99.90;7.70;100404.00;;;;6220182;23;20150;-66
2023/12/04 08:13:05;;;;;;;0.83;0.83;;;4.90;99.90;8.00;100391.00;;;;6220174;23;20545;-66
2023/12/04 08:15:37;;;;;;;1.03;0.60;;;5.10;99.90;8.10;100395.00;;;;6246452;23;20585;-66
2023/12/04 08:18:03;;;;;;;1.00;0.90;;;5.20;99.90;8.30;100396.00;;;;6220590;23;20149;-66
2023/12/04 08:20:29;;;;;;;0.60;0.60;;;5.30;99.90;7.90;100397.00;;;;6219615;23;20576;-66
2023/12/04 08:22:57;;;;;;;2.27;1.50;;;5.20;99.90;7.80;100403.00;;;;6246789;23;20155;-66
2023/12/04 08:25:29;;;;;;;1.27;1.17;;;5.10;99.90;7.60;100406.00;;;;6220448;23;20150;-66
2023/12/04 08:27:55;;;;;;;3.00;2.63;;;4.90;99.90;7.80;100384.00;;;;6220345;23;20160;-66
2023/12/04 08:30:21;;;;;;;1.60;1.50;;;5.00;99.90;7.20;100404.00;;;;6193076;23;20162;-66
2023/12/04 08:32:56;;;;;;;1.10;0.93;;;4.90;99.90;7.40;100356.00;;;;6220174;23;20670;-66
2023/12/04 08:35:32;;;;;;;0.83;0.83;;;4.80;99.90;7.60;100336.00;;;;6220569;23;20155;-67
2023/12/04 08:37:58;;;;;;;1.57;1.37;;;4.80;99.90;8.00;100350.00;;;;6194781;23;20505;-66
2023/12/04 08:40:24;;;;;;;0.73;0.73;;;4.90;99.90;7.60;100347.00;;;;6219195;23;20143;-66
2023/12/04 08:42:59;;;;;;;1.30;1.20;;;4.80;99.90;7.70;100373.00;;;;6246700;23;20269;-66
2023/12/04 08:45:34;;;;;;;2.40;0.97;;;4.90;99.90;7.90;100352.00;;;;6195074;23;20590;-66
2023/12/04 08:48:00;;;;;;;0.10;0.10;;;5.00;99.90;7.80;100353.00;;;;6246522;23;20637;-73
2023/12/04 08:50:32;;;;;;;0.77;0.77;;;4.90;99.90;7.70;100334.00;;;;6195117;23;20154;-73
2023/12/04 08:52:58;;;;;;;1.10;1.10;;;4.90;99.90;7.60;100365.00;;;;6220085;23;20169;-70
2023/12/04 08:55:28;;;;;;;3.00;2.17;;;4.90;99.90;7.40;100360.00;;;;6220288;23;20162;-70
2023/12/04 08:57:57;;;;;;;4.10;2.50;;;4.70;99.90;7.60;100345.00;;;;6219537;23;20479;-68
2023/12/04 09:00:23;;;;;;;1.70;1.60;;;4.70;99.90;6.90;100349.00;;;;6225698;22;20167;-69
2023/12/04 09:02:49;;;;;;;1.30;1.30;;;4.70;99.90;7.10;100348.00;;;;6249942;22;20150;-69
2023/12/04 09:05:17;;;;;;;0.77;0.77;;;4.60;99.90;7.00;100335.00;;;;6224930;22;20770;-70
2023/12/04 09:07:55;;;;;;;0.50;0.50;;;4.70;99.90;7.00;100300.00;;;;6250415;22;20237;-71
2023/12/04 09:10:30;;;;;;;2.13;1.47;;;4.50;99.90;7.70;100298.00;;;;6224207;22;20165;-71
2023/12/04 09:13:02;;;;;;;0.67;0.63;;;4.70;99.90;7.40;100305.00;;;;6224289;22;20180;-71
2023/12/04 09:15:31;;;;;;;3.27;1.90;;;4.80;99.90;7.20;100314.00;;;;6224275;22;20166;-71
2023/12/04 09:17:58;;;;;;;3.03;1.43;;;4.80;99.90;7.60;100299.00;;;;6249956;22;20144;-70
2023/12/04 09:20:29;;;;;;;7.33;1.50;;;4.90;99.90;7.40;100321.00;;;;6250193;22;20163;-71
2023/12/04 09:23:06;;;;;;;0.60;0.60;;;4.90;99.90;7.20;100311.00;;;;6250197;22;20178;-69
2023/12/04 09:25:43;;;;;;;0.40;0.40;;;4.90;99.90;7.60;100298.00;;;;6225325;22;20161;-69
2023/12/04 09:28:18;;;;;;;1.00;1.00;;;4.80;99.90;7.10;100245.00;;;;6222466;22;20423;-67
2023/12/04 09:30:50;;;;;;;1.00;0.93;;;4.70;99.90;7.30;100286.00;;;;6248471;22;20165;-72
2023/12/04 09:33:21;;;;;;;1.80;1.27;;;4.80;99.90;7.00;100250.00;;;;6248461;22;20200;-68
2023/12/04 09:35:53;;;;;;;4.60;2.47;;;4.90;99.90;7.00;100273.00;;;;6249605;22;20242;-68
2023/12/04 09:38:34;;;;;;;2.87;2.13;;;4.80;99.90;7.00;100259.00;;;;6223231;22;20196;-68
2023/12/04 09:41:12;;;;;;;4.03;2.73;;;4.80;99.90;6.80;100263.00;;;;6222961;22;20617;-69
2023/12/04 09:43:41;;;;;;;2.53;1.87;;;4.80;99.90;7.10;100250.00;;;;6248882;22;20196;-68
2023/12/04 09:46:14;;;;;;;2.60;1.60;;;4.80;99.90;7.20;100201.00;;;;6223508;22;20168;-69
2023/12/04 09:48:43;;;;;;;2.17;1.97;;;4.90;99.90;6.80;100201.00;;;;6249066;22;20248;-69
2023/12/04 09:51:16;;;;;;;0.57;0.57;;;4.90;99.90;7.30;100216.00;;;;6223421;22;20889;-69
2023/12/04 09:53:48;;;;;;;2.00;1.20;;;4.90;99.90;7.30;100211.00;;;;6223935;22;20232;-68
2023/12/04 09:56:23;;;;;;;0.70;0.70;;;4.90;99.90;7.60;100221.00;;;;6248685;22;20474;-69
2023/12/04 09:59:05;;;;;;;1.73;1.40;;;5.10;99.90;7.20;100215.00;;;;6223463;22;20644;-68
2023/12/04 10:01:43;;;;;;;1.90;1.13;;;4.90;99.90;6.70;100201.00;;;;6202685;23;20203;-68
2023/12/04 10:04:21;;;;;;;1.43;1.33;;;4.80;99.90;6.90;100190.00;;;;6193026;23;20210;-73
2023/12/04 10:06:54;;;;;;;3.10;2.83;;;4.70;99.90;6.60;100173.00;;;;6193095;23;20652;-67
2023/12/04 10:09:29;;;;;;;0.83;0.83;;;4.60;99.90;6.60;100155.00;;;;6218417;23;20587;-67
2023/12/04 10:12:15;;;;;;;3.03;1.90;;;4.60;99.90;6.40;100155.00;;;;6193074;23;20181;-67
2023/12/04 10:15:03;;;;;;;2.43;1.90;;;4.50;99.90;6.20;100147.00;;;;6218506;23;20662;-67
2023/12/04 10:17:41;;;;;;;1.30;1.20;;;4.40;99.90;6.10;100140.00;;;;6218445;23;20189;-67
2023/12/04 10:20:21;;;;;;;3.57;2.20;;;4.30;99.90;6.00;100134.00;;;;6219089;23;20252;-67
2023/12/04 10:33:35;;;;;;;2.33;1.80;;;3.30;99.90;5.20;100044.00;;;;5006484;27;4198900;-69
2023/12/04 10:36:14;;;;;;;1.67;1.37;;;3.60;99.90;5.60;100050.00;;;;5101149;28;20214;-69
2023/12/04 10:39:06;;;;;;;1.60;1.50;;;3.80;99.90;5.40;100036.00;;;;5124448;28;20208;-69
2023/12/04 10:41:34;;;;;;;2.83;2.63;;;3.80;99.90;5.80;100005.00;;;;5117493;28;20187;-69
2023/12/04 10:44:01;;;;;;;1.43;1.30;;;4.00;99.90;5.60;100037.00;;;;5116164;28;20546;-69
2023/12/04 10:46:31;;;;;;;1.63;1.40;;;3.90;99.90;5.60;100044.00;;;;5113292;27;20224;-67
2023/12/04 10:48:59;;;;;;;3.80;2.37;;;4.00;99.90;5.60;100024.00;;;;5129843;28;20651;-69
2023/12/04 10:51:34;;;;;;;2.07;1.90;;;4.00;99.90;5.50;100025.00;;;;5129891;27;20196;-69
2023/12/04 10:54:00;;;;;;;4.40;2.90;;;3.90;99.90;5.40;100019.00;;;;5124852;28;20283;-69
2023/12/04 10:56:36;;;;;;;2.00;1.13;;;3.80;99.90;5.60;100026.00;;;;5103505;28;20206;-69
2023/12/04 10:59:19;;;;;;;2.33;1.77;;;3.80;99.90;5.80;100008.00;;;;5136138;27;20210;-69
2023/12/04 11:01:46;;;;;;;4.23;2.43;;;3.90;99.90;5.70;99988.00;;;;5107808;28;20223;-69
2023/12/04 11:04:27;;;;;;;3.47;2.00;;;3.90;99.90;5.30;99991.00;;;;5111332;28;20185;-69
2023/12/04 11:06:54;;;;;;;1.77;1.63;;;3.80;99.90;5.30;99977.00;;;;5097586;28;20192;-67
2023/12/04 11:09:31;;;;;;;2.87;2.23;;;3.70;99.90;5.10;99968.00;;;;5099566;28;20272;-68
2023/12/04 11:12:12;;;;;;;4.33;3.00;;;3.60;99.90;5.60;99962.00;;;;5119539;28;20208;-68
2023/12/04 11:15:00;;;;;;;2.60;1.87;;;3.70;99.90;5.50;99961.00;;;;5108769;28;20242;-66
2023/12/04 11:17:43;;;;;;;5.07;3.87;;;3.80;99.90;5.70;99960.00;;;;5107093;28;20189;-67
2023/12/04 11:20:21;;;;;;;4.63;3.20;;;3.90;99.90;5.80;99958.00;;;;5119290;28;20189;-67
2023/12/04 11:23:00;;;;;;;3.57;2.73;;;3.90;99.90;5.20;99897.00;;;;5105678;28;20561;-67
2023/12/04 11:25:40;;;;;;;2.63;2.27;;;3.80;99.90;5.40;99925.00;;;;5106780;28;20189;-66
2023/12/04 11:28:16;;;;;;;2.87;2.07;;;3.90;99.90;5.60;99917.00;;;;5115276;28;20645;-66
2023/12/04 11:30:51;;;;;;;4.47;2.73;;;3.90;99.90;5.60;99912.00;;;;5109355;28;20239;-66
2023/12/04 11:33:28;;;;;;;2.37;1.17;;;3.90;99.90;5.80;99905.00;;;;5128411;28;20223;-66
2023/12/04 11:36:10;;;;;;;6.03;2.70;;;4.00;99.90;5.60;99894.00;;;;5116634;28;20197;-67
2023/12/04 11:38:52;;;;;;;2.77;0.93;;;4.00;99.90;6.10;99899.00;;;;5090054;28;20181;-66
2023/12/04 11:41:32;;;;;;;2.53;2.33;;;4.10;99.90;5.90;99897.00;;;;5103955;28;20192;-68
2023/12/04 11:44:15;;;;;;;1.87;1.77;;;4.10;99.90;5.50;99888.00;;;;5098262;28;20192;-68
2023/12/04 11:47:05;;;;;;;3.27;2.47;;;4.00;99.90;5.50;99886.00;;;;5089256;28;20185;-66
2023/12/04 11:49:46;;;;;;;1.80;1.13;;;4.00;99.90;6.00;99886.00;;;;5082372;28;20646;-68
2023/12/04 11:52:34;;;;;;;3.13;2.83;;;4.00;99.90;5.70;99877.00;;;;5098381;28;20205;-66
2023/12/04 11:55:11;;;;;;;2.97;2.37;;;4.00;99.90;5.80;99878.00;;;;5096436;28;20268;-66
2023/12/04 11:57:46;;;;;;;4.20;2.63;;;4.10;99.90;6.00;99878.00;;;;5110864;28;20189;-66
2023/12/04 12:00:21;;;;;;;2.80;1.90;;;4.10;99.90;5.90;99871.00;;;;5112724;28;20183;-66
2023/12/04 12:03:09;;;;;;;4.67;3.07;;;4.10;99.90;5.80;99840.00;;;;5086167;28;20301;-65
2023/12/04 12:05:50;;;;;;;3.23;2.23;;;4.10;99.90;5.80;99856.00;;;;5114715;28;20650;-66
2023/12/04 12:08:28;;;;;;;1.60;1.50;;;4.00;99.90;5.90;99855.00;;;;5106893;28;20231;-65
2023/12/04 12:11:08;;;;;;;3.17;1.13;;;4.10;99.90;6.00;99849.00;;;;5091109;28;20589;-65
2023/12/04 12:13:47;;;;;;;4.43;3.13;;;4.20;99.90;6.10;99849.00;;;;5104391;28;20191;-66
2023/12/04 12:16:39;;;;;;;2.63;2.47;;;4.20;99.90;6.00;99846.00;;;;5098741;28;20184;-68
2023/12/04 12:19:25;;;;;;;1.83;1.70;;;4.30;99.90;5.90;99838.00;;;;5094894;28;20625;-66
2023/12/04 12:22:08;;;;;;;3.50;2.33;;;4.30;99.90;6.30;99842.00;;;;5088344;28;20185;-66
2023/12/04 12:24:45;;;;;;;2.17;2.00;;;4.40;99.90;6.00;99830.00;;;;5107333;28;20255;-66
2023/12/04 12:27:16;;;;;;;3.80;2.20;;;4.40;99.90;6.10;99824.00;;;;5114295;28;20271;-67
2023/12/04 12:29:48;;;;;;;2.57;2.13;;;4.30;99.90;6.10;99826.00;;;;5099996;28;20210;-66
2023/12/04 12:32:20;;;;;;;2.67;2.47;;;4.40;99.90;5.90;99819.00;;;;5106409;28;20699;-66
2023/12/04 12:35:29;;;;;;;2.17;1.93;;;4.30;99.90;6.20;99813.00;;;;5107150;28;20228;-66
2023/12/04 12:38:09;;;;;;;1.47;1.37;;;4.30;99.90;6.40;99813.00;;;;5094111;28;20224;-66
2023/12/04 12:40:58;;;;;;;2.10;1.80;;;4.40;99.90;6.30;99796.00;;;;5094924;28;20188;-66
2023/12/04 12:43:29;;;;;;;4.50;2.57;;;4.40;99.90;6.60;99774.00;;;;5091910;28;20201;-66
2023/12/04 12:46:05;;;;;;;2.80;2.60;;;4.50;99.90;6.00;99794.00;;;;5091599;28;20294;-66
2023/12/04 12:48:37;;;;;;;1.93;1.83;;;4.30;99.90;6.20;99785.00;;;;5103799;28;20187;-66
2023/12/04 12:51:06;;;;;;;1.67;1.57;;;4.30;99.90;6.20;99754.00;;;;5103104;28;20641;-66
2023/12/04 12:54:13;;;;;;;1.50;1.40;;;4.30;99.90;6.20;99788.00;;;;5112763;28;20218;-66
2023/12/04 12:56:56;;;;;;;4.90;3.40;;;4.30;99.90;5.80;99783.00;;;;5097433;28;20189;-66
2023/12/04 12:59:52;;;;;;;2.00;1.90;;;4.20;99.90;5.50;99760.00;;;;5090899;28;20189;-65
2023/12/04 13:02:20;;;;;;;1.67;1.20;;;4.00;99.90;5.50;99744.00;;;;5110486;28;20696;-66
2023/12/04 13:04:55;;;;;;;2.50;2.27;;;4.00;99.90;5.70;99751.00;;;;5100486;28;20681;-66
2023/12/04 13:07:32;;;;;;;2.20;1.30;;;4.00;99.90;6.70;99728.00;;;;5097815;28;20190;-67
2023/12/04 13:10:05;;;;;;;4.43;3.47;;;4.30;99.90;6.00;99745.00;;;;5095926;28;20279;-66
2023/12/04 13:12:32;;;;;;;2.87;1.87;;;4.30;99.90;6.10;99743.00;;;;5110841;27;20618;-66
2023/12/04 13:14:58;;;;;;;2.50;1.90;;;4.20;99.90;6.00;99705.00;;;;5094806;28;20198;-66
2023/12/04 13:17:35;;;;;;;10.50;3.50;;;4.20;99.90;6.30;99735.00;;;;5106124;28;20192;-66
2023/12/04 13:20:15;;;;;;;1.23;1.20;;;4.30;99.90;6.40;99731.00;;;;5109617;28;20177;-66
2023/12/04 13:22:42;;;;;;;3.40;2.87;;;4.40;99.90;6.20;99726.00;;;;5095440;28;20201;-65
2023/12/04 13:25:16;;;;;;;1.97;1.60;;;4.40;99.90;6.40;99717.00;;;;5094150;28;20190;-66
2023/12/04 13:27:48;;;;;;;3.97;2.53;;;4.40;99.90;6.20;99722.00;;;;5093707;28;20183;-65
2023/12/04 13:30:14;;;;;;;3.93;2.03;;;4.20;99.90;6.10;99675.00;;;;5095749;28;20199;-64
2023/12/04 13:32:50;;;;;;;1.87;1.77;;;4.20;99.90;6.20;99708.00;;;;5083219;28;20221;-65
2023/12/04 13:35:16;;;;;;;2.93;2.37;;;4.30;99.90;6.10;99711.00;;;;5091542;28;20184;-65
2023/12/04 13:37:54;;;;;;;5.70;3.73;;;4.20;99.90;5.90;99665.00;;;;5101651;28;20192;-67
2023/12/04 13:40:32;;;;;;;6.50;3.67;;;4.20;99.90;6.00;99667.00;;;;5081040;28;20185;-64
2023/12/04 13:45:43;;;;;;;1.83;1.73;;;4.20;99.90;5.80;99687.00;;;;5106502;28;20242;-64
2023/12/04 13:48:11;;;;;;;2.57;2.23;;;4.10;99.90;6.50;99693.00;;;;5091884;28;20282;-64
2023/12/04 13:50:40;;;;;;;3.33;2.83;;;4.40;99.90;6.10;99681.00;;;;5103946;28;20214;-64
2023/12/04 13:53:10;;;;;;;1.60;1.50;;;4.30;99.90;6.80;99683.00;;;;5083749;28;20208;-64
2023/12/04 13:58:42;;;;;;;6.00;4.00;;;4.50;99.90;6.40;99681.00;;;;5105469;28;20227;-65
2023/12/04 14:01:22;;;;;;;4.90;4.50;;;4.50;99.90;6.60;99672.00;;;;5085205;28;20185;-65
2023/12/04 14:03:56;;;;;;;1.53;1.43;;;4.50;99.90;6.30;99631.00;;;;5112182;28;20186;-65
2023/12/04 14:06:28;;;;;;;2.87;1.53;;;4.40;99.90;6.30;99670.00;;;;5097551;28;20238;-65
2023/12/04 14:08:58;;;;;;;1.67;1.37;;;4.40;99.90;6.60;99663.00;;;;5098925;28;20176;-65
2023/12/04 14:11:30;;;;;;;2.63;2.30;;;4.50;99.90;6.80;99648.00;;;;5119140;27;20209;-65
2023/12/04 14:14:03;;;;;;;2.17;2.07;;;4.50;99.90;6.90;99651.00;;;;5094965;28;20189;-65
2023/12/04 14:16:38;;;;;;;2.50;1.97;;;4.60;99.90;6.70;99622.00;;;;5091445;28;20214;-65
2023/12/04 14:19:09;;;;;;;4.90;2.90;;;4.50;99.90;6.10;99622.00;;;;5080061;28;20712;-65
2023/12/04 14:21:58;;;;;;;1.60;1.50;;;4.40;99.90;6.20;99634.00;;;;5100903;28;20549;-65
2023/12/04 14:24:38;;;;;;;3.30;2.93;;;4.40;99.90;6.10;99602.00;;;;5093643;28;20567;-65
2023/12/04 14:27:29;;;;;;;2.93;1.50;;;4.30;99.90;6.00;99629.00;;;;5093229;28;20276;-65
2023/12/04 14:30:10;;;;;;;3.63;3.03;;;4.30;99.90;5.90;99628.00;;;;5088600;28;20188;-65
2023/12/04 14:32:44;;;;;;;1.90;1.80;;;4.30;99.90;6.30;99586.00;;;;5090993;28;20208;-65
2023/12/04 14:35:24;;;;;;;3.30;2.17;;;4.40;99.90;6.10;99578.00;;;;5087170;28;20279;-65
2023/12/04 14:38:06;;;;;;;4.63;3.40;;;4.30;99.90;6.20;99584.00;;;;5109123;28;20227;-65
2023/12/04 14:40:43;;;;;;;1.87;1.77;;;4.30;99.90;6.40;99606.00;;;;5110488;28;20182;-65
2023/12/04 14:43:18;;;;;;;1.10;1.10;;;4.40;99.90;5.90;99596.00;;;;5109843;28;20184;-65
2023/12/04 14:45:49;;;;;;;1.30;1.20;;;4.30;99.90;6.20;99595.00;;;;5092067;28;20182;-65
2023/12/04 14:48:30;;;;;;;2.00;1.90;;;4.30;99.90;6.40;99599.00;;;;5089248;28;20644;-65
2023/12/04 14:51:07;;;;;;;1.80;1.70;;;4.40;99.90;6.60;99601.00;;;;5105072;28;20179;-65
2023/12/04 14:53:50;;;;;;;1.50;1.40;;;4.50;99.90;6.50;99586.00;;;;5091965;28;20185;-65
2023/12/04 15:21:53;;;;;;;1.77;1.67;;;4.40;99.90;6.20;99569.00;;;;5068725;28;20201;-65
2023/12/04 15:24:27;;;;;;;4.03;3.27;;;4.40;99.90;6.40;99576.00;;;;5098792;28;20309;-66
2023/12/04 15:26:59;;;;;;;1.97;1.80;;;4.50;99.90;6.30;99565.00;;;;5095395;28;20181;-65
2023/12/04 15:29:38;;;;;;;4.97;2.83;;;4.40;99.90;6.70;99567.00;;;;5089697;28;20181;-66
2023/12/04 15:32:38;;;;;;;5.43;2.63;;;4.50;99.90;6.70;99564.00;;;;5092150;28;20226;-66
2023/12/04 15:35:08;;;;;;;2.27;2.07;;;4.60;99.90;6.50;99561.00;;;;5088907;28;20258;-66
2023/12/04 15:37:39;;;;;;;1.87;1.77;;;4.60;99.90;6.70;99523.00;;;;5097528;28;20203;-67
2023/12/04 15:40:13;;;;;;;2.93;2.73;;;4.60;99.90;6.20;99555.00;;;;5088605;28;20249;-66
2023/12/04 15:43:05;;;;;;;4.10;3.80;;;4.50;99.90;5.60;99552.00;;;;5088440;28;20251;-67
2023/12/04 15:45:36;;;;;;;5.27;4.77;;;4.40;99.90;6.00;99554.00;;;;5108955;28;20765;-66
2023/12/04 15:48:19;;;;;;;2.70;2.60;;;4.30;99.90;6.20;99564.00;;;;5095991;28;20193;-66
2023/12/04 15:51:13;;;;;;;2.90;2.67;;;4.40;99.90;6.60;99555.00;;;;5104770;28;20195;-66
2023/12/04 15:53:56;;;;;;;2.30;2.03;;;4.60;99.90;6.40;99553.00;;;;5101702;28;20637;-66
2023/12/04 15:56:51;;;;;;;2.43;2.23;;;4.60;99.90;5.90;99548.00;;;;5100127;28;20181;-66
2023/12/04 15:59:45;;;;;;;1.30;1.30;;;4.50;99.90;6.30;99547.00;;;;5076201;28;20197;-66
2023/12/04 16:02:33;;;;;;;2.73;2.50;;;4.50;99.90;6.70;99528.00;;;;5035730;28;20228;-65
2023/12/04 16:05:22;;;;;;;1.43;1.33;;;4.60;99.90;6.50;99542.00;;;;5112997;28;20190;-65
2023/12/04 16:08:08;;;;;;;2.53;2.00;;;4.60;99.90;6.40;99531.00;;;;5094618;28;20219;-65
2023/12/04 16:11:35;;;;;;;7.77;2.53;;;4.60;99.90;6.10;99535.00;;;;5100635;28;20197;-65
2023/12/04 16:14:07;;;;;;;3.33;2.93;;;4.60;99.90;6.30;99524.00;;;;5029398;28;20539;-66
2023/12/04 16:16:49;;;;;;;0.97;0.97;;;4.70;99.90;6.50;99522.00;;;;5011906;28;20291;-66
2023/12/04 16:19:24;;;;;;;4.43;3.80;;;4.60;99.90;6.00;99518.00;;;;5091982;28;20232;-66
2023/12/04 16:21:58;;;;;;;1.93;1.80;;;4.50;99.90;6.40;99504.00;;;;5085622;28;20279;-66
2023/12/04 16:24:29;;;;;;;3.67;3.33;;;4.60;99.90;6.20;99487.00;;;;5096689;28;20179;-66
2023/12/04 16:27:05;;;;;;;2.23;2.03;;;4.60;99.90;6.70;99516.00;;;;5089297;28;20188;-66
2023/12/04 16:29:45;;;;;;;3.00;1.70;;;4.70;99.90;6.30;99521.00;;;;5090361;28;20181;-66
2023/12/04 16:32:32;;;;;;;2.07;1.90;;;4.60;99.90;5.90;99518.00;;;;5106970;28;20213;-66
2023/12/04 16:35:08;;;;;;;1.83;1.77;;;4.50;99.90;6.40;99517.00;;;;5093135;28;20191;-65
2023/12/04 16:37:42;;;;;;;2.37;2.23;;;4.50;99.90;6.60;99519.00;;;;5110862;28;20206;-66
2023/12/04 16:40:16;;;;;;;2.77;2.50;;;4.60;99.90;6.30;99520.00;;;;5101166;28;20658;-65
2023/12/04 16:42:53;;;;;;;1.57;1.47;;;4.70;99.90;6.70;99512.00;;;;5106745;28;20177;-66
2023/12/04 16:45:25;;;;;;;3.23;2.97;;;4.70;99.90;5.80;99473.00;;;;5112325;27;20185;-67
2023/12/04 16:48:01;;;;;;;0.97;0.97;;;4.60;99.90;6.80;99509.00;;;;5093943;28;20187;-66
2023/12/04 16:50:34;;;;;;;2.00;1.90;;;4.70;99.90;6.50;99484.00;;;;5093680;28;20189;-66
2023/12/04 16:53:08;;;;;;;1.30;1.20;;;4.80;99.90;6.80;99496.00;;;;5112751;28;20204;-66
2023/12/04 16:55:45;;;;;;;2.83;2.43;;;4.80;99.90;5.70;99496.00;;;;5093407;28;20181;-66
2023/12/04 16:58:22;;;;;;;2.13;2.03;;;4.70;99.90;6.10;99465.00;;;;5107052;28;20185;-66
2023/12/04 17:00:58;;;;;;;2.10;1.83;;;4.70;99.90;6.70;99491.00;;;;5106690;27;20179;-66
2023/12/04 17:03:32;;;;;;;5.07;4.27;;;4.80;99.90;6.60;99483.00;;;;5097023;28;20194;-66
2023/12/04 17:06:09;;;;;;;2.30;2.10;;;4.90;99.90;6.80;99458.00;;;;5093249;28;20185;-66
2023/12/04 17:08:43;;;;;;;1.47;1.47;;;4.80;99.90;6.70;99483.00;;;;5093694;28;20180;-65
2023/12/04 17:11:23;;;;;;;2.53;2.33;;;4.90;99.90;6.20;99444.00;;;;5085981;28;20173;-65
2023/12/04 17:14:03;;;;;;;3.70;3.40;;;4.90;99.90;6.60;99483.00;;;;5094620;28;20185;-65
2023/12/04 17:16:37;;;;;;;4.60;3.40;;;4.80;99.90;7.10;99479.00;;;;5104176;28;20271;-65
2023/12/04 17:19:11;;;;;;;2.07;1.97;;;4.90;99.90;6.90;99481.00;;;;5110251;28;20601;-65
2023/12/04 17:21:38;;;;;;;3.70;3.00;;;5.00;99.90;7.10;99472.00;;;;5084913;28;20241;-66
2023/12/04 17:24:10;;;;;;;1.63;1.53;;;5.00;99.90;7.00;99470.00;;;;5105416;28;20175;-65
2023/12/04 17:26:39;;;;;;;0.97;0.97;;;5.10;99.90;7.30;99470.00;;;;5101758;28;20182;-65
2023/12/04 17:29:14;;;;;;;4.13;2.93;;;5.10;99.90;7.10;99461.00;;;;5090294;28;20189;-66
2023/12/04 17:31:46;;;;;;;8.60;4.17;;;5.00;99.90;7.00;99436.00;;;;5088823;28;20208;-65
2023/12/04 17:34:27;;;;;;;1.73;1.63;;;5.10;99.90;7.30;99463.00;;;;5088221;28;20593;-65
2023/12/04 17:36:57;;;;;;;2.70;2.50;;;5.20;99.90;6.80;99466.00;;;;5109726;28;20680;-65
2023/12/04 17:39:42;;;;;;;2.43;2.20;;;5.10;99.90;7.10;99454.00;;;;5103502;28;20271;-66
2023/12/04 17:42:27;;;;;;;2.25;2.03;;;5.20;99.90;7.60;99460.00;;;;5108110;28;20427;-65
2023/12/04 17:45:07;;;;;;;2.07;1.97;;;5.20;99.90;7.50;99451.00;;;;5101242;28;20187;-66
2023/12/04 17:47:45;;;;;;;1.37;1.27;;;5.30;99.90;7.20;99429.00;;;;5096076;28;20190;-65
2023/12/04 17:50:22;;;;;;;1.30;1.17;;;5.20;99.90;7.30;99447.00;;;;5092810;28;20182;-66
2023/12/04 17:53:00;;;;;;;4.60;3.70;;;5.20;99.90;7.20;99440.00;;;;5102865;28;20630;-70
2023/12/04 17:55:30;;;;;;;1.73;1.63;;;5.20;99.90;7.10;99445.00;;;;5086746;28;20178;-67
2023/12/04 17:58:02;;;;;;;1.93;1.77;;;5.30;99.90;7.30;99436.00;;;;5095833;28;20336;-68
2023/12/04 18:00:34;;;;;;;2.27;2.00;;;5.30;99.90;7.10;99396.00;;;;5082635;28;20182;-68
2023/12/04 18:04:02;;;;;;;2.30;2.10;;;5.20;99.90;7.00;99449.00;;;;5091115;28;20640;-68
2023/12/04 18:06:48;;;;;;;1.50;1.40;;;5.20;99.90;7.50;99443.00;;;;5106085;28;20199;-68
2023/12/04 18:09:17;;;;;;;0.90;0.90;;;5.30;99.90;7.90;99433.00;;;;5101418;28;20181;-68
2023/12/04 18:11:54;;;;;;;2.20;2.00;;;5.50;99.90;7.20;99430.00;;;;5091578;28;20212;-68
2023/12/04 18:14:21;;;;;;;3.50;3.20;;;5.30;99.90;6.70;99432.00;;;;5088163;28;20339;-68
2023/12/04 18:17:00;;;;;;;2.33;2.13;;;5.10;99.90;6.60;99424.00;;;;5080964;28;20186;-68
2023/12/04 18:20:14;;;;;;;2.97;2.77;;;5.10;99.90;6.80;99421.00;;;;5102709;28;20256;-69
2023/12/04 18:22:51;;;;;;;1.47;1.43;;;5.00;99.90;6.60;99428.00;;;;5094345;28;20255;-68
2023/12/04 18:25:58;;;;;;;1.57;1.47;;;5.10;99.90;6.90;99428.00;;;;5091526;28;20183;-68
2023/12/04 18:29:00;;;;;;;2.17;2.07;;;5.10;99.90;7.30;99417.00;;;;5096492;28;20205;-68
2023/12/04 18:31:32;;;;;;;3.67;3.30;;;5.20;99.90;7.30;99383.00;;;;5082176;28;20209;-68
2023/12/04 18:34:01;;;;;;;2.97;2.73;;;5.30;99.90;7.30;99408.00;;;;5094957;28;20297;-68
2023/12/04 18:37:04;;;;;;;2.83;2.63;;;5.30;99.90;6.80;99412.00;;;;5091252;28;20260;-68
2023/12/04 18:39:40;;;;;;;1.80;1.57;;;5.20;99.90;6.70;99407.00;;;;5092228;28;20666;-68
2023/12/04 18:42:41;;;;;;;2.33;2.20;;;5.10;99.90;7.20;99397.00;;;;5106687;28;20181;-68
2023/12/04 18:45:32;;;;;;;3.27;2.77;;;5.20;99.90;7.20;99397.00;;;;5110391;28;20668;-68
2023/12/04 18:48:41;;;;;;;3.23;3.03;;;5.20;99.90;8.00;99393.00;;;;5093595;28;20308;-68
2023/12/04 18:51:14;;;;;;;0.93;0.90;;;5.50;99.90;8.10;99397.00;;;;5102546;28;20191;-68
2023/12/04 18:53:55;;;;;;;2.83;1.87;;;5.70;99.90;7.60;99391.00;;;;5105941;28;20718;-68
2023/12/04 18:56:29;;;;;;;3.20;3.00;;;5.60;99.90;7.20;99358.00;;;;5085554;28;20270;-68
2023/12/04 18:59:03;;;;;;;3.40;3.10;;;5.50;99.90;7.40;99387.00;;;;5095679;28;20641;-68
2023/12/04 19:01:38;;;;;;;2.27;2.17;;;5.40;99.90;7.60;99387.00;;;;5093165;28;20241;-68
2023/12/04 19:04:14;;;;;;;2.07;1.97;;;5.40;99.90;7.90;99387.00;;;;5089931;28;20702;-69
2023/12/04 19:06:57;;;;;;;2.33;2.00;;;5.50;99.90;7.50;99392.00;;;;5113448;28;20644;-68
2023/12/04 19:10:07;;;;;;;1.17;0.90;;;5.50;99.90;8.00;99384.00;;;;5105187;28;20191;-68
2023/12/04 19:13:05;;;;;;;3.10;2.90;;;5.60;99.90;7.60;99383.00;;;;5101198;28;20226;-68
2023/12/04 19:15:54;;;;;;;0.93;0.93;;;5.60;99.90;7.50;99381.00;;;;5101246;28;20209;-68
2023/12/04 19:18:46;;;;;;;2.57;2.37;;;5.50;99.90;7.50;99359.00;;;;5105064;28;20191;-68
2023/12/04 19:21:44;;;;;;;2.37;2.17;;;5.60;99.90;6.70;99345.00;;;;5078575;28;20200;-69
2023/12/04 19:25:02;;;;;;;6.57;4.57;;;5.40;99.90;7.20;99361.00;;;;5085763;28;20200;-67
2023/12/04 19:28:23;;;;;;;0.50;0.50;;;5.40;99.90;7.00;99367.00;;;;5086450;28;20206;-67
2023/12/04 19:31:34;;;;;;;2.60;2.40;;;5.40;99.90;6.80;99365.00;;;;5111184;27;20180;-67
2023/12/04 19:34:25;;;;;;;3.23;3.03;;;5.30;99.90;7.30;99365.00;;;;5089158;28;20221;-67
2023/12/04 19:37:23;;;;;;;1.93;1.83;;;5.30;99.90;7.50;99363.00;;;;5075617;28;20173;-68